Time;durP1;ratioP1;P1;durP2;ratioP2;P2;SDS_P1;SDS_P2;PMS_P1;PMS_P2;Temp;Humidity;BMP_temperature;BMP_pressure;BME280_temperature;BME280_humidity;BME280_pressure;Samples;Min_cycle;Max_cycle;Signal;HPM_P1;HPM_P2
2021/06/11 00:00:34;;;;;;;5.87;5.37;;;18.90;99.90;;;;;;4989636;28;20429;-68
2021/06/11 00:03:03;;;;;;;6.77;6.07;;;18.90;99.90;;;;;;4990043;28;20496;-70
2021/06/11 00:05:31;;;;;;;6.50;5.90;;;18.90;99.90;;;;;;4991150;28;20397;-68
2021/06/11 00:07:58;;;;;;;6.77;6.07;;;18.90;99.90;;;;;;4991099;28;20509;-69
2021/06/11 00:10:28;;;;;;;7.60;6.77;;;18.90;99.90;;;;;;4991398;28;20438;-68
2021/06/11 00:12:56;;;;;;;6.33;5.73;;;18.90;99.90;;;;;;4990494;28;20413;-68
2021/06/11 00:15:25;;;;;;;7.17;6.40;;;19.00;99.90;;;;;;4990924;28;20448;-69
2021/06/11 00:17:52;;;;;;;7.93;7.13;;;19.10;99.90;;;;;;4990538;28;20426;-69
2021/06/11 00:20:22;;;;;;;7.40;6.60;;;19.20;99.90;;;;;;4990271;28;20421;-70
2021/06/11 00:22:52;;;;;;;8.70;7.83;;;19.20;99.90;;;;;;4990137;28;20944;-69
2021/06/11 00:25:22;;;;;;;8.47;7.67;;;19.10;99.90;;;;;;4990387;28;20422;-69
2021/06/11 00:27:54;;;;;;;8.43;6.97;;;19.10;99.90;;;;;;4990166;28;20396;-69
2021/06/11 00:30:23;;;;;;;7.20;6.60;;;19.30;99.90;;;;;;4990397;28;20876;-70
2021/06/11 00:32:52;;;;;;;7.37;6.63;;;19.30;99.90;;;;;;4989663;28;20552;-70
2021/06/11 00:35:20;;;;;;;10.10;6.90;;;19.30;99.90;;;;;;4990291;28;20444;-70
2021/06/11 00:37:47;;;;;;;10.70;6.40;;;19.30;99.90;;;;;;4990243;28;20418;-68
2021/06/11 00:40:16;;;;;;;6.90;6.30;;;19.30;99.90;;;;;;4990079;28;20460;-69
2021/06/11 00:42:44;;;;;;;7.47;6.77;;;19.30;99.90;;;;;;4989963;28;20613;-70
2021/06/11 00:45:13;;;;;;;7.70;7.00;;;19.30;99.90;;;;;;4990461;28;20467;-69
2021/06/11 00:47:41;;;;;;;6.30;5.60;;;19.30;99.90;;;;;;4990299;28;20905;-69
2021/06/11 00:50:10;;;;;;;5.87;5.37;;;19.30;99.90;;;;;;4990245;28;20436;-68
2021/06/11 00:52:39;;;;;;;10.10;6.37;;;19.30;99.90;;;;;;4990126;28;20401;-69
2021/06/11 00:55:09;;;;;;;6.60;6.00;;;19.30;99.90;;;;;;4990770;28;20500;-69
2021/06/11 00:57:36;;;;;;;5.83;5.30;;;19.20;99.90;;;;;;4990048;28;20995;-68
2021/06/11 01:00:05;;;;;;;7.10;6.43;;;19.20;99.90;;;;;;4989572;28;20427;-70
2021/06/11 01:02:34;;;;;;;8.00;6.63;;;19.10;99.90;;;;;;4990221;28;20481;-69
2021/06/11 01:05:03;;;;;;;6.37;5.77;;;19.10;99.90;;;;;;4989951;28;20487;-69
2021/06/11 01:07:32;;;;;;;7.70;7.00;;;19.10;99.90;;;;;;4990006;28;20405;-69
2021/06/11 01:10:00;;;;;;;7.13;6.40;;;19.10;99.90;;;;;;4989966;28;20453;-68
2021/06/11 01:12:28;;;;;;;8.03;6.30;;;19.20;99.90;;;;;;4990617;28;20472;-69
2021/06/11 01:14:56;;;;;;;8.33;7.53;;;19.30;99.90;;;;;;4988841;28;20456;-69
2021/06/11 01:17:24;;;;;;;8.53;7.10;;;19.30;99.90;;;;;;4990150;28;20895;-69
2021/06/11 01:19:54;;;;;;;7.67;7.07;;;19.30;99.90;;;;;;4990079;28;20420;-69
2021/06/11 01:22:32;;;;;;;7.00;6.40;;;19.30;99.90;;;;;;4990160;28;20782;-71
2021/06/11 01:25:07;;;;;;;8.50;7.43;;;19.30;99.90;;;;;;4989516;28;20391;-68
2021/06/11 01:27:37;;;;;;;8.60;6.73;;;19.30;99.90;;;;;;4990057;28;20396;-68
2021/06/11 01:30:09;;;;;;;9.10;6.50;;;19.30;99.90;;;;;;4989664;28;20958;-68
2021/06/11 01:32:38;;;;;;;7.70;7.07;;;19.20;99.90;;;;;;4988217;28;20455;-68
2021/06/11 01:35:10;;;;;;;7.23;6.53;;;19.20;99.90;;;;;;4989636;28;20488;-69
2021/06/11 01:37:40;;;;;;;7.87;7.13;;;19.20;99.90;;;;;;4989591;28;20421;-68
2021/06/11 01:40:10;;;;;;;6.80;6.20;;;19.30;99.90;;;;;;4989074;28;20424;-68
2021/06/11 01:42:42;;;;;;;8.40;6.10;;;19.30;99.90;;;;;;4989221;28;20935;-69
2021/06/11 01:45:12;;;;;;;6.93;6.23;;;19.30;99.90;;;;;;4988983;28;20850;-69
2021/06/11 01:47:42;;;;;;;5.67;5.17;;;19.30;99.90;;;;;;4989766;28;20392;-69
2021/06/11 01:50:15;;;;;;;6.93;6.33;;;19.20;99.90;;;;;;4988990;28;20456;-69
2021/06/11 01:52:45;;;;;;;6.60;6.00;;;19.20;99.90;;;;;;4989368;28;20887;-69
2021/06/11 01:55:13;;;;;;;6.80;6.10;;;19.20;99.90;;;;;;4987762;28;20448;-69
2021/06/11 01:57:44;;;;;;;6.60;6.00;;;19.20;99.90;;;;;;4989535;28;20424;-69
2021/06/11 02:00:13;;;;;;;7.03;6.40;;;19.20;99.90;;;;;;4989190;28;20996;-69
2021/06/11 02:02:42;;;;;;;6.37;5.87;;;19.10;99.90;;;;;;4990323;28;20417;-69
2021/06/11 02:05:11;;;;;;;7.33;6.63;;;19.20;99.90;;;;;;4990829;28;20945;-69
2021/06/11 02:07:40;;;;;;;5.10;4.70;;;19.20;99.90;;;;;;4989467;28;20412;-69
2021/06/11 02:10:10;;;;;;;7.03;6.43;;;19.20;99.90;;;;;;4990219;28;20955;-69
2021/06/11 02:12:39;;;;;;;7.77;6.30;;;19.20;99.90;;;;;;4990451;28;20426;-69
2021/06/11 02:15:11;;;;;;;6.73;5.97;;;19.20;99.90;;;;;;4989819;28;20494;-69
2021/06/11 02:17:42;;;;;;;6.70;5.57;;;19.20;99.90;;;;;;4989225;28;20414;-69
2021/06/11 02:20:11;;;;;;;6.53;5.93;;;19.10;99.90;;;;;;4988812;28;20950;-68
2021/06/11 02:22:40;;;;;;;7.53;6.73;;;19.20;99.90;;;;;;4989279;28;20404;-69
2021/06/11 02:25:10;;;;;;;6.13;5.53;;;19.10;99.90;;;;;;4989323;28;20932;-69
2021/06/11 02:27:39;;;;;;;7.23;6.53;;;19.10;99.90;;;;;;4993004;28;20396;-69
2021/06/11 02:30:11;;;;;;;7.00;6.33;;;19.20;99.90;;;;;;4992839;28;20533;-70
2021/06/11 02:32:39;;;;;;;5.87;5.37;;;19.10;99.90;;;;;;4993024;28;20846;-70
2021/06/11 02:35:09;;;;;;;7.20;6.50;;;19.10;99.90;;;;;;4993007;28;20447;-70
2021/06/11 02:37:37;;;;;;;8.20;7.37;;;19.20;99.90;;;;;;4994012;28;20422;-70
2021/06/11 02:40:07;;;;;;;7.83;6.10;;;19.10;99.90;;;;;;4992918;28;20457;-68
2021/06/11 02:42:35;;;;;;;6.70;5.83;;;19.00;99.90;;;;;;4992851;28;20411;-70
2021/06/11 02:45:06;;;;;;;7.40;6.70;;;19.10;99.90;;;;;;4992768;28;20774;-69
2021/06/11 02:47:43;;;;;;;7.80;7.07;;;19.20;99.90;;;;;;4992673;28;20417;-69
2021/06/11 02:50:15;;;;;;;7.20;6.13;;;19.10;99.90;;;;;;4992113;28;20427;-69
2021/06/11 02:52:50;;;;;;;6.83;6.23;;;19.20;99.90;;;;;;4992841;28;20900;-69
2021/06/11 02:55:21;;;;;;;7.13;6.43;;;19.10;99.90;;;;;;4992611;28;20572;-69
2021/06/11 02:57:57;;;;;;;7.87;7.27;;;19.10;99.90;;;;;;4992892;28;20422;-69
2021/06/11 03:00:27;;;;;;;17.37;8.33;;;19.10;99.90;;;;;;4992527;28;20453;-69
2021/06/11 03:03:04;;;;;;;9.20;8.40;;;19.10;99.90;;;;;;4992327;28;20491;-69
2021/06/11 03:05:32;;;;;;;8.20;7.07;;;19.00;99.90;;;;;;4993016;28;20423;-69
2021/06/11 03:08:06;;;;;;;7.80;7.20;;;19.10;99.90;;;;;;4993295;28;20400;-69
2021/06/11 03:10:36;;;;;;;8.43;6.50;;;19.10;99.90;;;;;;4992687;28;20436;-69
2021/06/11 03:13:05;;;;;;;7.90;6.83;;;19.10;99.90;;;;;;4994216;28;20411;-70
2021/06/11 03:15:35;;;;;;;7.07;6.47;;;19.20;99.90;;;;;;5024615;23;20474;-69
2021/06/11 03:18:08;;;;;;;7.87;7.17;;;19.20;99.90;;;;;;5025904;28;20829;-69
2021/06/11 03:20:41;;;;;;;7.67;6.63;;;19.20;99.90;;;;;;5012157;28;20431;-69
2021/06/11 03:23:14;;;;;;;8.80;6.30;;;19.20;99.90;;;;;;5045747;28;20433;-70
2021/06/11 03:25:46;;;;;;;6.90;6.30;;;19.30;99.90;;;;;;5030651;28;20477;-70
2021/06/11 03:28:19;;;;;;;7.47;6.70;;;19.30;99.90;;;;;;5037492;28;20487;-69
2021/06/11 03:30:52;;;;;;;6.83;6.20;;;19.30;99.90;;;;;;5031326;28;20813;-70
2021/06/11 03:33:25;;;;;;;14.33;6.27;;;19.30;99.90;;;;;;5030700;28;20457;-69
2021/06/11 03:35:57;;;;;;;8.93;6.70;;;19.40;99.90;;;;;;5032832;28;20582;-69
2021/06/11 03:38:27;;;;;;;7.53;6.93;;;19.40;99.90;;;;;;5039757;28;20407;-69
2021/06/11 03:40:57;;;;;;;7.20;6.60;;;19.50;99.90;;;;;;5031081;28;20456;-69
2021/06/11 03:43:28;;;;;;;6.97;6.37;;;19.60;99.90;;;;;;5036507;28;20857;-69
2021/06/11 03:45:57;;;;;;;6.57;5.93;;;19.60;99.90;;;;;;5029599;28;20418;-69
2021/06/11 03:48:29;;;;;;;6.40;5.80;;;19.70;99.90;;;;;;5033115;28;20511;-70
2021/06/11 03:50:57;;;;;;;6.30;5.70;;;19.80;99.90;;;;;;5033665;28;20472;-70
2021/06/11 03:53:26;;;;;;;7.13;5.67;;;19.90;99.90;;;;;;5039969;28;20490;-70
2021/06/11 03:55:59;;;;;;;7.77;7.07;;;19.90;99.90;;;;;;5029359;28;20450;-69
2021/06/11 03:58:32;;;;;;;7.43;6.40;;;19.90;99.90;;;;;;5020595;28;21066;-69
2021/06/11 04:01:03;;;;;;;6.63;6.03;;;20.00;99.90;;;;;;5029138;28;20579;-69
2021/06/11 04:03:32;;;;;;;6.17;5.60;;;20.10;99.90;;;;;;5022314;28;20483;-69
2021/06/11 04:06:05;;;;;;;8.73;7.93;;;20.20;99.90;;;;;;5034558;28;20430;-69
2021/06/11 04:08:34;;;;;;;7.77;7.07;;;20.40;99.90;;;;;;5036178;28;20453;-69
2021/06/11 04:11:05;;;;;;;7.67;6.80;;;20.70;99.90;;;;;;5028754;28;20809;-69
2021/06/11 04:13:44;;;;;;;8.23;7.30;;;21.10;99.90;;;;;;5029165;28;20894;-70
2021/06/11 04:16:17;;;;;;;5.70;5.20;;;21.90;99.90;;;;;;5031154;28;20487;-70
2021/06/11 04:18:49;;;;;;;7.07;6.40;;;23.00;99.90;;;;;;5038703;28;20697;-68
2021/06/11 04:21:20;;;;;;;7.00;6.37;;;24.10;99.90;;;;;;5028579;28;20445;-69
2021/06/11 04:23:50;;;;;;;8.20;6.83;;;25.10;99.90;;;;;;5035993;28;20497;-69
2021/06/11 04:26:20;;;;;;;7.90;6.50;;;26.20;99.90;;;;;;5029929;28;20432;-69
2021/06/11 04:28:48;;;;;;;8.20;6.77;;;26.80;99.90;;;;;;5028481;28;20543;-68
2021/06/11 04:31:16;;;;;;;5.33;4.83;;;27.30;99.90;;;;;;5030828;28;20854;-67
2021/06/11 04:33:44;;;;;;;6.33;5.80;;;27.80;99.90;;;;;;5039207;28;20988;-68
2021/06/11 04:36:13;;;;;;;6.70;6.20;;;27.50;99.90;;;;;;5029909;28;20538;-69
2021/06/11 04:38:54;;;;;;;7.60;6.90;;;26.40;99.90;;;;;;5034296;28;20445;-70
2021/06/11 04:41:22;;;;;;;9.60;6.60;;;25.40;99.90;;;;;;5029986;28;20414;-69
2021/06/11 04:43:50;;;;;;;7.33;6.47;;;24.60;99.90;;;;;;5027552;28;20849;-68
2021/06/11 04:46:18;;;;;;;7.13;6.10;;;24.30;99.90;;;;;;5036971;28;20422;-69
2021/06/11 04:48:45;;;;;;;7.97;7.20;;;24.10;99.90;;;;;;5029577;28;20905;-70
2021/06/11 04:51:14;;;;;;;7.37;6.50;;;23.90;99.90;;;;;;5026470;28;20458;-68
2021/06/11 04:53:43;;;;;;;7.23;6.50;;;23.80;99.90;;;;;;5037450;28;20394;-69
2021/06/11 04:56:11;;;;;;;7.30;6.50;;;24.10;99.90;;;;;;5028568;28;20841;-69
2021/06/11 04:58:40;;;;;;;6.07;5.57;;;24.50;99.90;;;;;;5018577;28;20469;-70
2021/06/11 05:01:09;;;;;;;7.90;6.80;;;25.90;99.90;;;;;;5028278;28;20477;-69
2021/06/11 05:03:37;;;;;;;7.40;6.80;;;27.70;99.90;;;;;;5026720;28;20497;-69
2021/06/11 05:06:05;;;;;;;6.00;5.37;;;29.10;99.90;;;;;;5037288;28;20435;-68
2021/06/11 05:08:34;;;;;;;6.73;6.13;;;29.70;99.90;;;;;;5029390;28;20785;-69
2021/06/11 05:11:03;;;;;;;6.23;5.73;;;30.40;99.90;;;;;;5034517;28;20527;-69
2021/06/11 05:13:31;;;;;;;6.43;5.83;;;31.10;99.90;;;;;;5021252;28;20439;-69
2021/06/11 05:16:06;;;;;;;5.43;4.93;;;31.60;99.90;;;;;;5005749;28;20560;-69
2021/06/11 05:18:34;;;;;;;5.70;5.30;;;32.30;99.90;;;;;;5009234;28;20897;-68
2021/06/11 05:21:02;;;;;;;7.30;5.57;;;32.20;99.90;;;;;;5007607;28;20461;-72
2021/06/11 05:23:30;;;;;;;7.03;6.43;;;32.40;99.90;;;;;;5008927;28;20404;-70
2021/06/11 05:25:59;;;;;;;5.67;5.17;;;32.80;99.90;;;;;;5008616;28;20443;-70
2021/06/11 05:28:27;;;;;;;5.90;5.40;;;32.90;99.90;;;;;;5009300;28;20409;-68
2021/06/11 05:30:56;;;;;;;5.93;5.43;;;32.30;99.90;;;;;;5009463;28;20484;-68
2021/06/11 05:33:24;;;;;;;6.00;4.80;;;32.40;99.90;;;;;;5009079;28;20428;-70
2021/06/11 05:35:52;;;;;;;5.33;4.90;;;32.30;99.90;;;;;;5010066;28;20448;-70
2021/06/11 05:38:20;;;;;;;4.97;4.57;;;31.20;99.90;;;;;;5009265;28;20467;-69
2021/06/11 05:40:48;;;;;;;5.17;4.47;;;29.70;99.90;;;;;;5008546;28;20449;-70
2021/06/11 05:43:18;;;;;;;8.00;5.03;;;28.00;99.90;;;;;;5007914;28;20413;-68
2021/06/11 05:45:45;;;;;;;4.83;4.40;;;26.80;99.90;;;;;;5006821;28;20417;-70
2021/06/11 05:48:13;;;;;;;6.00;4.60;;;26.20;99.90;;;;;;5008017;28;20475;-68
2021/06/11 05:50:41;;;;;;;5.27;4.77;;;25.80;99.90;;;;;;5008085;28;20452;-69
2021/06/11 05:53:09;;;;;;;4.80;4.27;;;25.40;99.90;;;;;;5008783;28;20396;-68
2021/06/11 05:55:37;;;;;;;5.30;4.80;;;25.10;99.90;;;;;;5009067;28;20799;-68
2021/06/11 05:58:05;;;;;;;5.73;5.13;;;25.00;99.90;;;;;;5008600;28;20431;-69
2021/06/11 06:00:34;;;;;;;6.13;5.50;;;24.80;99.90;;;;;;5006859;28;21105;-68
2021/06/11 06:03:02;;;;;;;5.07;4.57;;;24.50;99.90;;;;;;5006390;28;20432;-68
2021/06/11 06:05:30;;;;;;;7.33;4.93;;;24.40;99.90;;;;;;5013264;28;20437;-69
2021/06/11 06:07:58;;;;;;;5.17;4.47;;;24.40;99.90;;;;;;5015949;28;20432;-72
2021/06/11 06:10:26;;;;;;;4.80;4.40;;;24.50;99.90;;;;;;5013349;28;20423;-69
2021/06/11 06:12:53;;;;;;;5.60;5.10;;;24.40;99.90;;;;;;5013944;28;20403;-68
2021/06/11 06:15:22;;;;;;;5.97;5.27;;;24.40;99.90;;;;;;5012200;28;20449;-70
2021/06/11 06:17:51;;;;;;;6.07;5.53;;;24.50;99.90;;;;;;5012577;28;20432;-68
2021/06/11 06:20:19;;;;;;;6.20;5.60;;;24.70;99.90;;;;;;5012835;28;20687;-69
2021/06/11 06:22:46;;;;;;;6.13;5.47;;;24.60;99.90;;;;;;5013156;28;20893;-70
2021/06/11 06:25:14;;;;;;;8.40;6.33;;;24.70;99.90;;;;;;5013669;28;20508;-71
2021/06/11 06:27:43;;;;;;;7.63;6.83;;;24.50;99.90;;;;;;5013191;28;20763;-68
2021/06/11 06:30:15;;;;;;;8.30;7.50;;;24.50;99.90;;;;;;5012927;28;20449;-68
2021/06/11 06:32:43;;;;;;;9.07;6.70;;;24.50;99.90;;;;;;5011864;28;20793;-69
2021/06/11 06:35:17;;;;;;;9.53;7.40;;;24.40;99.90;;;;;;5012109;28;20460;-70
2021/06/11 06:37:45;;;;;;;7.87;7.07;;;24.50;99.90;;;;;;5012134;28;20468;-69
2021/06/11 06:40:14;;;;;;;5.90;5.30;;;24.50;99.90;;;;;;5011945;28;20507;-70
2021/06/11 06:42:42;;;;;;;6.40;5.77;;;24.70;99.90;;;;;;5011190;28;20392;-66
2021/06/11 06:45:13;;;;;;;7.20;6.47;;;24.80;99.90;;;;;;5012201;28;20461;-68
2021/06/11 06:47:43;;;;;;;6.17;5.63;;;24.80;99.90;;;;;;5011754;28;20763;-70
2021/06/11 06:50:12;;;;;;;6.10;5.20;;;25.10;99.90;;;;;;5010794;28;20427;-70
2021/06/11 06:52:41;;;;;;;6.93;6.33;;;25.40;99.90;;;;;;5012029;28;20428;-70
2021/06/11 06:55:10;;;;;;;8.70;7.80;;;25.70;99.90;;;;;;5012556;28;20392;-70
2021/06/11 06:57:38;;;;;;;6.53;5.93;;;25.70;99.90;;;;;;5011915;28;20464;-69
2021/06/11 07:00:08;;;;;;;8.90;7.63;;;25.80;99.90;;;;;;5012055;28;20449;-69
2021/06/11 07:02:36;;;;;;;7.00;6.40;;;25.70;99.90;;;;;;5012114;28;20433;-69
2021/06/11 07:05:05;;;;;;;9.30;6.10;;;25.50;99.90;;;;;;5012412;28;20427;-68
2021/06/11 07:07:33;;;;;;;7.27;6.63;;;25.40;99.90;;;;;;5012754;28;20479;-68
2021/06/11 07:10:04;;;;;;;6.60;6.00;;;25.40;99.90;;;;;;5012923;28;20419;-68
2021/06/11 07:12:32;;;;;;;9.03;6.37;;;24.80;99.90;;;;;;5012023;28;20547;-68
2021/06/11 07:15:00;;;;;;;8.37;7.37;;;24.70;99.90;;;;;;5012015;28;20437;-67
2021/06/11 07:17:27;;;;;;;6.10;5.50;;;24.80;99.90;;;;;;5011678;28;20579;-68
2021/06/11 07:19:55;;;;;;;8.13;7.30;;;24.80;99.90;;;;;;5011726;28;21009;-68
2021/06/11 07:22:23;;;;;;;7.37;6.67;;;24.70;99.90;;;;;;5012131;28;20395;-68
2021/06/11 07:24:50;;;;;;;7.30;6.50;;;24.60;99.90;;;;;;5011829;28;20421;-68
2021/06/11 07:27:19;;;;;;;7.33;6.60;;;24.50;99.90;;;;;;5011737;28;20768;-69
2021/06/11 07:29:48;;;;;;;6.80;6.10;;;24.60;99.90;;;;;;5011357;28;20774;-67
2021/06/11 07:32:17;;;;;;;8.07;7.37;;;24.90;99.90;;;;;;5011491;28;20417;-69
2021/06/11 07:34:46;;;;;;;7.73;7.03;;;25.00;99.90;;;;;;5012526;28;20914;-68
2021/06/11 07:37:15;;;;;;;8.13;6.90;;;25.20;99.90;;;;;;5012257;28;20555;-70
2021/06/11 07:39:42;;;;;;;8.63;7.80;;;24.80;99.90;;;;;;5011291;28;20430;-70
2021/06/11 07:42:12;;;;;;;7.50;6.60;;;24.70;99.90;;;;;;5011601;28;20920;-69
2021/06/11 07:44:41;;;;;;;8.33;6.47;;;24.80;99.90;;;;;;5012538;28;20820;-67
2021/06/11 07:47:09;;;;;;;7.63;6.80;;;24.90;99.90;;;;;;5010814;28;20475;-68
2021/06/11 07:49:38;;;;;;;10.20;6.80;;;24.60;99.90;;;;;;5010219;28;20959;-67
2021/06/11 07:52:06;;;;;;;9.97;6.57;;;24.50;99.90;;;;;;5010556;28;20432;-68
2021/06/11 07:54:34;;;;;;;9.30;7.20;;;24.50;99.90;;;;;;5010375;28;20436;-68
2021/06/11 07:57:02;;;;;;;6.83;6.23;;;24.50;99.90;;;;;;5010491;28;21000;-68
2021/06/11 07:59:29;;;;;;;7.60;6.80;;;24.50;99.90;;;;;;5008607;28;20580;-68
2021/06/11 08:01:59;;;;;;;6.27;5.67;;;24.60;99.90;;;;;;5010408;28;20449;-68
2021/06/11 08:04:26;;;;;;;7.60;6.90;;;24.80;99.90;;;;;;5010073;28;20433;-69
2021/06/11 08:06:54;;;;;;;7.00;6.30;;;25.00;99.90;;;;;;5009794;28;20398;-68
2021/06/11 08:09:22;;;;;;;6.40;5.40;;;25.10;99.90;;;;;;5009940;28;20971;-69
2021/06/11 08:11:49;;;;;;;6.57;6.03;;;25.50;99.90;;;;;;5010184;28;20429;-68
2021/06/11 08:14:21;;;;;;;7.60;5.83;;;25.50;99.90;;;;;;5009927;28;20948;-69
2021/06/11 08:16:48;;;;;;;7.67;6.10;;;25.70;99.90;;;;;;5011339;28;20464;-68
2021/06/11 08:19:18;;;;;;;5.50;5.00;;;25.50;99.90;;;;;;5010668;28;20407;-69
2021/06/11 08:21:47;;;;;;;6.67;6.07;;;25.60;99.90;;;;;;5010087;28;20437;-69
2021/06/11 08:24:14;;;;;;;6.13;5.57;;;25.70;99.90;;;;;;5008687;28;20564;-69
2021/06/11 08:26:42;;;;;;;6.77;6.07;;;25.70;99.90;;;;;;5010148;28;20425;-68
2021/06/11 08:29:09;;;;;;;8.13;7.43;;;25.80;99.90;;;;;;5009011;28;20452;-69
2021/06/11 08:31:37;;;;;;;9.47;6.63;;;25.50;99.90;;;;;;5009561;28;20415;-68
2021/06/11 08:34:05;;;;;;;6.50;6.00;;;25.30;99.90;;;;;;5008156;28;20421;-68
2021/06/11 08:36:34;;;;;;;7.50;6.77;;;25.40;99.90;;;;;;5007331;28;21010;-69
2021/06/11 08:39:01;;;;;;;7.63;6.93;;;25.80;99.90;;;;;;5009474;28;20400;-68
2021/06/11 08:41:31;;;;;;;6.30;5.70;;;26.30;99.90;;;;;;5008764;28;20437;-69
2021/06/11 08:43:59;;;;;;;6.07;5.57;;;26.50;99.90;;;;;;5009459;28;20431;-69
2021/06/11 08:46:28;;;;;;;8.90;6.70;;;26.50;99.90;;;;;;5008404;28;20425;-68
2021/06/11 08:48:58;;;;;;;7.53;6.83;;;26.40;99.90;;;;;;5010727;28;20418;-67
2021/06/11 08:51:26;;;;;;;6.70;6.20;;;26.10;99.90;;;;;;5010188;28;20436;-68
2021/06/11 08:53:55;;;;;;;9.73;6.83;;;25.80;99.90;;;;;;5010527;28;20429;-68
2021/06/11 08:56:23;;;;;;;6.33;5.83;;;25.90;99.90;;;;;;5010756;28;20429;-69
2021/06/11 08:58:53;;;;;;;5.93;5.43;;;26.10;99.90;;;;;;5010555;28;20448;-68
2021/06/11 09:01:21;;;;;;;5.70;5.20;;;26.10;99.90;;;;;;5010752;28;20967;-68
2021/06/11 09:03:52;;;;;;;5.77;5.17;;;26.20;99.90;;;;;;5009177;28;20475;-69
2021/06/11 09:06:19;;;;;;;6.27;5.73;;;26.10;99.90;;;;;;5010648;28;20463;-69
2021/06/11 09:08:51;;;;;;;6.43;5.70;;;26.30;99.90;;;;;;5010767;28;20421;-68
2021/06/11 09:11:22;;;;;;;6.40;5.80;;;26.30;99.90;;;;;;5010265;28;20449;-69
2021/06/11 09:13:54;;;;;;;6.03;5.53;;;26.10;99.90;;;;;;5031476;22;20420;-78
2021/06/11 09:16:24;;;;;;;5.80;5.20;;;26.30;99.90;;;;;;5081525;28;20491;-78
2021/06/11 09:18:52;;;;;;;4.73;4.20;;;26.70;99.90;;;;;;5062848;28;20428;-78
2021/06/11 09:21:36;;;;;;;4.60;4.20;;;27.20;99.90;;;;;;5042767;28;20487;-78
2021/06/11 09:27:07;;;;;;;4.37;3.97;;;27.30;99.90;;;;;;5037725;28;20443;-78
2021/06/11 09:29:37;;;;;;;4.03;3.73;;;27.20;99.90;;;;;;5036091;28;20573;-77
2021/06/11 09:32:18;;;;;;;3.57;3.27;;;27.00;99.90;;;;;;5042743;28;20428;-78
2021/06/11 09:34:48;;;;;;;3.97;3.67;;;26.80;99.90;;;;;;5040823;28;20459;-78
2021/06/11 09:37:18;;;;;;;4.10;3.80;;;26.80;99.90;;;;;;5048744;28;20487;-78
2021/06/11 09:39:49;;;;;;;3.70;3.40;;;26.70;99.90;;;;;;5052935;28;20537;-79
2021/06/11 09:42:21;;;;;;;4.90;4.50;;;26.50;99.90;;;;;;5059778;28;20948;-79
2021/06/11 09:44:53;;;;;;;3.53;3.23;;;26.50;99.90;;;;;;5049322;28;20988;-78
2021/06/11 09:47:38;;;;;;;4.77;4.43;;;26.90;99.90;;;;;;5055697;28;20866;-79
2021/06/11 09:50:13;;;;;;;4.37;3.97;;;27.30;99.90;;;;;;5056894;28;20503;-79
2021/06/11 09:52:52;;;;;;;4.30;3.90;;;27.00;99.90;;;;;;5061685;28;20486;-78
2021/06/11 09:55:25;;;;;;;4.90;4.40;;;27.00;99.90;;;;;;5062764;28;20504;-78
2021/06/11 09:58:05;;;;;;;4.40;4.00;;;27.10;99.90;;;;;;5060491;28;20477;-78
2021/06/11 10:00:35;;;;;;;5.70;5.27;;;26.90;99.90;;;;;;5060660;28;20572;-78
2021/06/11 10:03:09;;;;;;;4.17;3.87;;;26.80;99.90;;;;;;5029954;28;20466;-80
2021/06/11 10:05:38;;;;;;;4.90;4.50;;;26.70;99.90;;;;;;5049006;28;20490;-78
2021/06/11 10:08:07;;;;;;;4.00;3.60;;;26.60;99.90;;;;;;5055559;28;20427;-79
2021/06/11 10:10:36;;;;;;;3.53;3.23;;;26.70;99.90;;;;;;5057175;28;20411;-79
2021/06/11 10:13:05;;;;;;;2.83;2.63;;;26.80;99.90;;;;;;5051834;28;20490;-78
2021/06/11 10:15:33;;;;;;;3.73;3.43;;;26.80;99.90;;;;;;5063216;28;20628;-78
2021/06/11 10:18:02;;;;;;;3.90;2.27;;;26.90;99.90;;;;;;5062309;28;20514;-79
2021/06/11 10:20:30;;;;;;;3.20;2.60;;;26.90;99.90;;;;;;5059507;28;20980;-78
2021/06/11 10:22:59;;;;;;;3.53;2.50;;;26.70;99.90;;;;;;5058629;28;20498;-79
2021/06/11 10:25:27;;;;;;;2.57;2.37;;;26.80;99.90;;;;;;5055010;28;20838;-78
2021/06/11 10:27:56;;;;;;;2.70;2.50;;;26.80;99.90;;;;;;5053900;28;20463;-79
2021/06/11 10:30:31;;;;;;;3.43;3.13;;;26.90;99.90;;;;;;5054829;28;20439;-80
2021/06/11 10:32:59;;;;;;;3.47;2.90;;;27.10;99.90;;;;;;5052658;28;20434;-79
2021/06/11 10:35:39;;;;;;;3.30;3.00;;;27.00;99.90;;;;;;5053970;28;20459;-80
2021/06/11 10:38:11;;;;;;;2.40;2.20;;;26.70;99.90;;;;;;5059385;28;20489;-79
2021/06/11 10:40:40;;;;;;;2.47;2.27;;;26.50;99.90;;;;;;5058276;28;20443;-78
2021/06/11 10:43:22;;;;;;;2.33;2.10;;;26.50;99.90;;;;;;5061182;28;20857;-78
2021/06/11 10:45:52;;;;;;;3.00;2.67;;;26.60;99.90;;;;;;5038817;28;20460;-80
2021/06/11 10:48:21;;;;;;;5.23;3.20;;;26.70;99.90;;;;;;5047124;28;20466;-79
2021/06/11 10:50:51;;;;;;;2.47;2.27;;;26.90;99.90;;;;;;5067965;28;20424;-77
2021/06/11 10:53:29;;;;;;;3.90;3.50;;;27.10;99.90;;;;;;5061211;28;20473;-79
2021/06/11 10:56:14;;;;;;;7.33;6.30;;;27.60;99.90;;;;;;5071232;28;20400;-79
2021/06/11 10:58:45;;;;;;;4.30;2.90;;;28.30;99.90;;;;;;5057516;28;20466;-79
2021/06/11 11:01:28;;;;;;;3.07;2.87;;;28.30;99.90;;;;;;5069950;28;20428;-78
2021/06/11 11:04:17;;;;;;;3.57;3.27;;;28.20;99.90;;;;;;5059446;28;20428;-77
2021/06/11 11:06:45;;;;;;;4.43;4.03;;;28.00;99.90;;;;;;5059174;28;20445;-78
2021/06/11 11:09:15;;;;;;;3.47;3.17;;;27.80;99.90;;;;;;5068546;28;20719;-77
2021/06/11 11:11:46;;;;;;;3.97;3.33;;;27.40;99.90;;;;;;5085563;28;20512;-78
2021/06/11 11:14:47;;;;;;;3.10;2.80;;;27.40;99.90;;;;;;5067461;28;20486;-80
2021/06/11 11:17:19;;;;;;;3.40;3.10;;;27.70;99.90;;;;;;5060400;28;20811;-80
2021/06/11 11:19:50;;;;;;;4.13;3.13;;;27.80;99.90;;;;;;5049577;28;20482;-79
2021/06/11 11:22:30;;;;;;;2.50;2.30;;;27.30;99.90;;;;;;5078236;28;20419;-80
2021/06/11 11:25:00;;;;;;;2.47;2.27;;;26.80;99.90;;;;;;5070336;28;20545;-81
2021/06/11 11:27:28;;;;;;;3.47;3.17;;;26.90;99.90;;;;;;5070508;28;20517;-80
2021/06/11 11:29:56;;;;;;;2.30;2.10;;;27.40;99.90;;;;;;5088231;28;20437;-80
2021/06/11 11:32:25;;;;;;;3.13;2.83;;;27.60;99.90;;;;;;5079137;28;20559;-80
2021/06/11 11:34:53;;;;;;;2.67;2.47;;;27.70;99.90;;;;;;5073743;28;20504;-79
2021/06/11 11:37:21;;;;;;;1.97;1.77;;;27.50;99.90;;;;;;5066538;28;20450;-78
2021/06/11 11:39:49;;;;;;;3.10;2.80;;;27.70;99.90;;;;;;5057140;28;20435;-79
2021/06/11 11:42:16;;;;;;;3.30;2.70;;;27.70;99.90;;;;;;5058476;28;20427;-80
2021/06/11 11:44:44;;;;;;;2.80;2.60;;;27.60;99.90;;;;;;5068062;28;20478;-81
2021/06/11 11:47:12;;;;;;;4.63;3.13;;;27.70;99.90;;;;;;5056477;28;20447;-81
2021/06/11 11:49:41;;;;;;;3.40;3.10;;;28.10;99.90;;;;;;5055637;28;20459;-80
2021/06/11 11:52:28;;;;;;;3.73;2.80;;;28.00;99.90;;;;;;5036199;28;20535;-80
2021/06/11 11:54:56;;;;;;;3.80;3.50;;;28.10;99.90;;;;;;5060179;28;20489;-80
2021/06/11 11:57:24;;;;;;;3.40;3.10;;;28.00;99.90;;;;;;5058857;28;20432;-80
2021/06/11 11:59:52;;;;;;;2.90;2.60;;;28.00;99.90;;;;;;5042084;28;20533;-79
2021/06/11 12:02:20;;;;;;;4.90;3.27;;;28.30;99.90;;;;;;5040021;28;20490;-80
2021/06/11 12:04:49;;;;;;;4.93;3.97;;;28.10;99.90;;;;;;5040875;28;20995;-79
2021/06/11 12:07:17;;;;;;;2.13;1.93;;;28.20;99.90;;;;;;5047867;28;20475;-80
2021/06/11 12:09:45;;;;;;;3.40;3.10;;;28.30;99.90;;;;;;5048346;28;20483;-81
2021/06/11 12:12:13;;;;;;;2.30;2.10;;;28.40;99.90;;;;;;5048194;28;20899;-80
2021/06/11 12:14:41;;;;;;;2.60;2.33;;;28.50;99.90;;;;;;5053817;28;20485;-81
2021/06/11 12:17:09;;;;;;;4.07;2.30;;;28.30;99.90;;;;;;5067444;28;20411;-81
2021/06/11 12:19:37;;;;;;;2.43;1.73;;;28.30;99.90;;;;;;5054436;28;20455;-81
2021/06/11 12:22:06;;;;;;;3.43;2.90;;;28.30;99.90;;;;;;5042616;28;20489;-79
2021/06/11 12:24:34;;;;;;;2.40;2.17;;;28.30;99.90;;;;;;5035903;28;20544;-80
2021/06/11 12:27:02;;;;;;;2.20;2.00;;;28.30;99.90;;;;;;5059832;28;20442;-80
2021/06/11 12:29:32;;;;;;;2.20;1.90;;;28.30;99.90;;;;;;5053777;28;20428;-80
2021/06/11 12:32:00;;;;;;;3.20;1.80;;;28.40;99.90;;;;;;5061972;28;20407;-79
2021/06/11 12:34:28;;;;;;;2.40;2.20;;;28.30;99.90;;;;;;5067273;28;20497;-80
2021/06/11 12:36:56;;;;;;;2.20;2.00;;;27.90;99.90;;;;;;5068216;28;20496;-81
2021/06/11 12:39:25;;;;;;;2.23;2.03;;;27.90;99.90;;;;;;5048886;28;20506;-81
2021/06/11 12:41:55;;;;;;;2.20;1.70;;;28.00;99.90;;;;;;5032443;28;20448;-81
2021/06/11 12:44:25;;;;;;;2.13;1.80;;;28.30;99.90;;;;;;5073533;28;20522;-81
2021/06/11 12:46:54;;;;;;;3.00;2.63;;;28.10;99.90;;;;;;5059742;28;20444;-81
2021/06/11 12:49:25;;;;;;;2.30;2.10;;;27.80;99.90;;;;;;5047150;28;20864;-81
2021/06/11 12:51:53;;;;;;;2.63;2.03;;;27.30;99.90;;;;;;5036742;28;20504;-81
2021/06/11 12:54:22;;;;;;;3.00;2.30;;;27.10;99.90;;;;;;5044989;28;20498;-81
2021/06/11 12:56:51;;;;;;;2.63;2.40;;;27.00;99.90;;;;;;5036903;28;20466;-81
2021/06/11 12:59:19;;;;;;;2.40;2.20;;;27.00;99.90;;;;;;5048361;28;20859;-81
2021/06/11 13:01:47;;;;;;;2.60;2.40;;;27.00;99.90;;;;;;5073613;28;20801;-81